Time;durP1;ratioP1;P1;durP2;ratioP2;P2;SDS_P1;SDS_P2;PMS_P1;PMS_P2;Temp;Humidity;BMP_temperature;BMP_pressure;BME280_temperature;BME280_humidity;BME280_pressure;Samples;Min_cycle;Max_cycle;Signal;HPM_P1;HPM_P2
2022/08/03 00:00:27;;;;;;;13.13;4.80;;;;;;;18.48;72.57;99545.81;8366035;28;20048;-82
2022/08/03 00:04:37;;;;;;;8.65;4.20;;;;;;;18.43;73.01;99537.88;8366782;28;20059;-82
2022/08/03 00:08:38;;;;;;;9.23;4.30;;;;;;;18.38;73.41;99549.84;8363656;28;20049;-82
2022/08/03 00:12:40;;;;;;;7.63;4.40;;;;;;;18.35;73.88;99549.75;8362995;28;20033;-82
2022/08/03 00:16:41;;;;;;;7.50;4.70;;;;;;;18.33;74.01;99549.31;8346607;28;20505;-82
2022/08/03 00:20:42;;;;;;;9.45;4.40;;;;;;;18.28;74.27;99546.84;8362861;28;20048;-82
2022/08/03 00:24:43;;;;;;;5.85;4.40;;;;;;;18.25;74.43;99544.78;8370061;28;20383;-82
2022/08/03 00:28:44;;;;;;;10.23;4.68;;;;;;;18.21;74.78;99536.50;8362339;28;20037;-82
2022/08/03 00:32:45;;;;;;;6.55;5.00;;;;;;;18.18;75.00;99541.88;8376282;28;20378;-82
2022/08/03 00:36:46;;;;;;;7.80;4.30;;;;;;;18.14;75.23;99542.56;8373382;28;20068;-82
2022/08/03 00:40:47;;;;;;;7.28;4.85;;;;;;;18.10;75.66;99541.66;8361819;28;20097;-83
2022/08/03 00:44:48;;;;;;;9.02;5.18;;;;;;;18.10;75.68;99549.06;8357917;28;20127;-83
2022/08/03 00:48:49;;;;;;;7.03;4.60;;;;;;;18.07;75.86;99547.84;8346641;28;20052;-82
2022/08/03 00:52:53;;;;;;;6.45;4.65;;;;;;;18.03;75.86;99541.44;8373697;28;20041;-83
2022/08/03 00:56:55;;;;;;;9.93;5.15;;;;;;;17.99;76.25;99545.22;8361078;28;20049;-83
2022/08/03 01:00:55;;;;;;;8.32;5.15;;;;;;;17.93;76.57;99536.47;8346173;28;20052;-83
2022/08/03 01:04:56;;;;;;;9.90;5.40;;;;;;;17.88;77.46;99535.94;8337669;28;20086;-83
2022/08/03 01:08:57;;;;;;;7.47;4.82;;;;;;;17.82;77.95;99540.06;8337334;28;20044;-83
2022/08/03 01:13:03;;;;;;;8.57;5.25;;;;;;;17.78;77.98;99539.94;8345414;28;20083;-82
2022/08/03 01:17:20;;;;;;;6.28;5.30;;;;;;;17.77;78.12;99538.34;8345854;28;20036;-83
2022/08/03 01:21:33;;;;;;;7.45;5.10;;;;;;;17.75;77.90;99535.19;8332091;28;20053;-83
2022/08/03 01:25:55;;;;;;;10.05;5.72;;;;;;;17.70;78.34;99529.97;8342655;28;20504;-84
2022/08/03 01:30:14;;;;;;;8.75;5.22;;;;;;;17.67;78.47;99533.38;8344622;28;20029;-83
2022/08/03 01:34:16;;;;;;;8.23;5.22;;;;;;;17.65;78.49;99532.94;8361705;28;20064;-83
2022/08/03 01:38:32;;;;;;;13.60;5.28;;;;;;;17.63;78.75;99527.00;8359299;28;20040;-82
2022/08/03 01:42:33;;;;;;;11.35;6.50;;;;;;;17.60;78.94;99530.44;8352128;28;20489;-83
2022/08/03 01:46:36;;;;;;;8.15;6.00;;;;;;;17.57;79.29;99522.91;8315597;28;20046;-81
2022/08/03 01:50:37;;;;;;;7.70;5.55;;;;;;;17.53;79.68;99516.53;8322747;28;20042;-83
2022/08/03 01:54:43;;;;;;;9.70;5.95;;;;;;;17.52;79.69;99518.47;8328506;28;20076;-83
2022/08/03 01:58:44;;;;;;;14.45;5.82;;;;;;;17.50;80.03;99517.25;8325689;28;20060;-82
2022/08/03 02:15:22;;;;;;;8.68;6.60;;;;;;;17.55;83.09;99503.34;8390248;27;20409;-82
2022/08/03 02:19:24;;;;;;;9.23;6.57;;;;;;;17.52;82.68;99510.28;8388713;28;20067;-83
2022/08/03 02:23:24;;;;;;;8.18;6.30;;;;;;;17.52;82.30;99504.03;8387968;28;20056;-82
2022/08/03 02:27:26;;;;;;;9.18;6.45;;;;;;;17.51;82.10;99502.44;8389633;28;20114;-83
2022/08/03 02:31:29;;;;;;;11.15;6.88;;;;;;;17.49;82.06;99502.78;8387953;28;20099;-83
2022/08/03 02:35:34;;;;;;;10.10;6.90;;;;;;;17.47;82.08;99496.06;8395953;28;20408;-83
2022/08/03 02:39:35;;;;;;;10.43;7.75;;;;;;;17.47;82.41;99501.53;8371726;28;20049;-84
2022/08/03 02:43:37;;;;;;;10.60;7.43;;;;;;;17.48;82.81;99497.66;8388927;28;20048;-82
2022/08/03 02:47:40;;;;;;;10.30;7.95;;;;;;;17.50;82.83;99495.41;8388101;28;20063;-82
2022/08/03 02:51:44;;;;;;;17.13;8.40;;;;;;;17.50;83.10;99507.09;8388198;28;20409;-82
2022/08/03 02:55:46;;;;;;;12.52;8.05;;;;;;;17.53;83.61;99511.06;8386460;28;20048;-83
2022/08/03 02:59:47;;;;;;;13.40;8.05;;;;;;;17.55;83.30;99509.59;8386703;28;20190;-82
2022/08/03 03:03:49;;;;;;;9.23;7.65;;;;;;;17.58;83.12;99508.91;8387457;28;20049;-82
2022/08/03 03:07:50;;;;;;;9.75;8.05;;;;;;;17.61;83.40;99501.97;8387321;28;20064;-82
2022/08/03 03:11:52;;;;;;;15.30;8.13;;;;;;;17.62;83.24;99515.28;8368458;28;20057;-83
2022/08/03 03:15:56;;;;;;;18.58;9.00;;;;;;;17.63;83.49;99510.63;8367055;28;20052;-83
2022/08/03 03:19:58;;;;;;;10.38;8.75;;;;;;;17.62;83.58;99503.56;8365815;28;20053;-85
2022/08/03 03:23:59;;;;;;;15.07;8.73;;;;;;;17.63;83.76;99516.09;8365246;28;20135;-82
2022/08/03 03:28:01;;;;;;;12.88;8.98;;;;;;;17.64;83.69;99506.75;8364692;28;20397;-85
2022/08/03 03:32:02;;;;;;;12.52;9.00;;;;;;;17.64;83.73;99512.22;8358097;28;20510;-83
2022/08/03 03:36:05;;;;;;;14.23;9.23;;;;;;;17.63;83.88;99499.69;8375837;28;20048;-84
2022/08/03 03:40:07;;;;;;;13.80;9.45;;;;;;;17.62;83.81;99511.75;8361655;28;20041;-84
2022/08/03 03:44:08;;;;;;;12.27;9.23;;;;;;;17.62;83.90;99509.03;8361165;28;20057;-84
2022/08/03 03:48:09;;;;;;;11.50;9.55;;;;;;;17.62;83.86;99522.69;8360075;28;20053;-84
2022/08/03 03:52:10;;;;;;;11.07;8.80;;;;;;;17.60;84.05;99517.59;8342976;28;20055;-83
2022/08/03 03:56:11;;;;;;;11.63;9.27;;;;;;;17.57;84.31;99523.69;8371954;28;20080;-83
2022/08/03 04:00:14;;;;;;;14.40;9.90;;;;;;;17.52;84.94;99525.88;8360379;28;20080;-84
2022/08/03 04:12:59;;;;;;;11.70;9.70;;;;;;;17.43;85.28;99522.47;8360280;28;20057;-83
2022/08/03 04:17:05;;;;;;;14.63;9.65;;;;;;;17.43;85.02;99523.28;8360970;28;20040;-83
2022/08/03 04:21:09;;;;;;;13.57;9.98;;;;;;;17.41;85.50;99524.75;8348652;28;20068;-84
2022/08/03 04:25:16;;;;;;;16.02;10.07;;;;;;;17.38;85.53;99530.91;8358584;28;20084;-83
2022/08/03 04:29:18;;;;;;;15.27;10.60;;;;;;;17.40;84.96;99531.34;8376804;28;20056;-84
2022/08/03 04:33:20;;;;;;;20.23;10.93;;;;;;;17.38;84.99;99528.97;8376736;28;20401;-83
2022/08/03 04:37:36;;;;;;;15.10;10.68;;;;;;;17.37;84.98;99542.94;8393636;28;20396;-84
2022/08/03 04:41:37;;;;;;;16.65;10.50;;;;;;;17.43;84.66;99544.31;8359439;28;20056;-82
2022/08/03 04:45:39;;;;;;;19.55;10.95;;;;;;;17.43;84.58;99547.06;8393044;28;20051;-84
2022/08/03 04:49:40;;;;;;;19.58;11.18;;;;;;;17.43;84.61;99539.66;8376099;28;20121;-83
2022/08/03 04:53:42;;;;;;;14.25;10.75;;;;;;;17.44;84.65;99545.91;8392713;28;20056;-82
2022/08/03 04:57:43;;;;;;;15.05;10.57;;;;;;;17.45;84.24;99548.28;8392581;28;20040;-82
2022/08/03 05:01:44;;;;;;;18.80;10.73;;;;;;;17.46;84.31;99543.63;8392061;28;20068;-84
2022/08/03 05:05:45;;;;;;;16.85;11.23;;;;;;;17.47;84.22;99545.22;8378889;28;20057;-85
2022/08/03 05:09:46;;;;;;;15.20;11.10;;;;;;;17.49;84.11;99553.88;8363066;28;20053;-87
2022/08/03 05:13:49;;;;;;;14.77;10.90;;;;;;;17.50;84.16;99544.53;8362735;28;20060;-84
2022/08/03 05:17:50;;;;;;;13.27;10.88;;;;;;;17.59;84.07;99543.31;8363252;28;20043;-81
2022/08/03 05:21:51;;;;;;;14.27;11.02;;;;;;;17.75;83.46;99546.13;8362371;28;20490;-83
2022/08/03 05:25:52;;;;;;;16.45;11.13;;;;;;;17.87;83.05;99543.31;8362383;28;20077;-85
2022/08/03 05:29:53;;;;;;;14.10;11.00;;;;;;;18.00;82.49;99541.34;8362542;28;20068;-84
2022/08/03 05:33:55;;;;;;;14.88;10.35;;;;;;;18.08;82.21;99543.94;8362729;28;20053;-84
2022/08/03 05:37:56;;;;;;;13.50;9.93;;;;;;;18.23;81.72;99552.56;8375431;28;20126;-85
2022/08/03 05:41:57;;;;;;;13.07;10.23;;;;;;;18.41;81.02;99551.09;8362359;28;20033;-86
2022/08/03 05:45:59;;;;;;;14.13;10.02;;;;;;;18.64;80.81;99554.88;8363676;28;20485;-82
2022/08/03 05:50:00;;;;;;;13.70;9.98;;;;;;;18.79;80.06;99556.81;8361712;28;20053;-85
2022/08/03 05:54:04;;;;;;;15.63;11.18;;;;;;;18.76;80.41;99563.00;8362179;28;20130;-83
2022/08/03 05:58:05;;;;;;;14.70;9.48;;;;;;;18.80;80.18;99558.41;8343503;28;20048;-83
2022/08/03 06:02:06;;;;;;;12.43;9.02;;;;;;;18.88;80.11;99554.69;8361710;28;20595;-85
2022/08/03 06:06:07;;;;;;;12.68;9.75;;;;;;;19.01;80.03;99551.88;8362447;28;20068;-85
2022/08/03 06:10:08;;;;;;;13.70;9.55;;;;;;;19.14;79.30;99561.59;8362366;28;20052;-83
2022/08/03 06:14:09;;;;;;;19.75;10.40;;;;;;;19.26;79.68;99564.22;8362023;28;20460;-82
2022/08/03 06:18:10;;;;;;;17.08;10.80;;;;;;;19.41;79.69;99571.63;8360976;28;20118;-84
2022/08/03 06:22:11;;;;;;;15.63;10.95;;;;;;;19.55;79.47;99566.53;8361777;28;20045;-87
2022/08/03 06:26:12;;;;;;;14.98;10.35;;;;;;;19.67;79.85;99558.16;8361886;28;20501;-84
2022/08/03 06:30:14;;;;;;;14.00;10.68;;;;;;;19.74;79.47;99569.28;8360648;28;20045;-84
2022/08/03 06:34:14;;;;;;;18.33;9.82;;;;;;;19.82;79.11;99575.72;8361786;28;20044;-85
2022/08/03 06:38:16;;;;;;;12.30;9.90;;;;;;;19.91;78.60;99567.28;8361686;28;20067;-85
2022/08/03 06:42:16;;;;;;;15.45;8.88;;;;;;;19.98;78.00;99564.72;8361590;28;20133;-83
2022/08/03 06:46:18;;;;;;;9.63;7.32;;;;;;;20.05;77.66;99573.06;8361705;28;20057;-83
2022/08/03 06:50:19;;;;;;;10.55;7.18;;;;;;;20.11;77.09;99566.16;8365609;28;20405;-86
2022/08/03 06:54:21;;;;;;;11.00;7.32;;;;;;;20.25;76.52;99577.38;8365442;28;20048;-83
2022/08/03 06:58:21;;;;;;;8.23;6.63;;;;;;;20.37;75.60;99574.53;8367738;28;20057;-83
2022/08/03 07:02:22;;;;;;;16.92;6.22;;;;;;;20.51;74.81;99580.31;8367673;28;20049;-82
2022/08/03 07:06:23;;;;;;;6.60;5.45;;;;;;;20.64;74.48;99578.97;8367236;28;20482;-84
2022/08/03 07:10:24;;;;;;;7.07;4.85;;;;;;;20.75;73.43;99578.38;8367693;28;20470;-89
2022/08/03 07:14:25;;;;;;;8.75;5.70;;;;;;;20.84;73.18;99576.19;8366948;28;20140;-84
2022/08/03 07:18:26;;;;;;;8.18;5.25;;;;;;;20.99;72.18;99583.53;8367012;28;20049;-82
2022/08/03 07:22:27;;;;;;;7.00;5.75;;;;;;;21.14;72.41;99574.38;8366822;28;20144;-83
2022/08/03 07:26:28;;;;;;;8.85;4.70;;;;;;;21.29;71.91;99584.44;8366285;28;20053;-84
2022/08/03 07:30:32;;;;;;;7.45;4.72;;;;;;;21.44;71.79;99578.00;8355502;28;20484;-83
2022/08/03 07:34:33;;;;;;;6.40;4.70;;;;;;;21.61;70.94;99581.38;8366362;28;20045;-83
2022/08/03 07:38:35;;;;;;;6.15;4.28;;;;;;;21.72;71.21;99582.34;8359383;28;20486;-82
2022/08/03 07:42:39;;;;;;;5.85;4.32;;;;;;;21.90;70.74;99572.34;8352388;28;20461;-84
2022/08/03 07:46:40;;;;;;;11.77;4.32;;;;;;;22.04;69.45;99589.09;8361328;28;20048;-85
2022/08/03 07:50:41;;;;;;;6.35;4.72;;;;;;;22.16;68.24;99580.59;8359685;28;20045;-84
2022/08/03 07:54:42;;;;;;;9.10;4.05;;;;;;;22.28;66.98;99583.09;8361555;28;20553;-86
2022/08/03 07:58:43;;;;;;;9.63;4.00;;;;;;;22.42;66.87;99581.69;8361246;28;20089;-84
2022/08/03 08:02:45;;;;;;;10.75;3.97;;;;;;;22.54;66.61;99584.97;8360654;28;20866;-84
2022/08/03 08:06:46;;;;;;;9.07;4.10;;;;;;;22.71;66.53;99583.59;8361148;28;20041;-84
2022/08/03 08:10:47;;;;;;;4.45;3.92;;;;;;;22.86;65.09;99585.31;8344777;28;20524;-85
2022/08/03 08:14:49;;;;;;;5.25;3.88;;;;;;;23.01;64.69;99586.22;8361495;28;20052;-84
2022/08/03 08:18:49;;;;;;;11.13;3.80;;;;;;;23.13;64.93;99584.00;8350566;28;20136;-83
2022/08/03 08:22:51;;;;;;;9.20;4.00;;;;;;;23.27;64.82;99583.31;8365126;28;20124;-84
2022/08/03 08:26:52;;;;;;;4.63;3.85;;;;;;;23.39;64.09;99584.97;8364125;28;20375;-85
2022/08/03 08:30:53;;;;;;;9.15;3.97;;;;;;;23.55;63.28;99588.28;8364461;28;20624;-83
2022/08/03 08:34:53;;;;;;;5.10;3.88;;;;;;;23.65;63.17;99582.03;8364048;28;20044;-84
2022/08/03 08:39:00;;;;;;;6.35;3.78;;;;;;;23.78;62.74;99586.06;8364428;28;20053;-88
2022/08/03 08:43:01;;;;;;;4.57;3.75;;;;;;;23.90;61.02;99571.91;8348415;28;20396;-83
2022/08/03 08:47:02;;;;;;;4.18;3.50;;;;;;;24.06;61.55;99579.13;8364076;28;20041;-84
2022/08/03 08:51:04;;;;;;;8.65;3.78;;;;;;;24.21;60.33;99580.78;8363708;28;20121;-84
2022/08/03 08:55:07;;;;;;;5.97;3.80;;;;;;;24.33;60.05;99577.66;8363803;28;20057;-86
2022/08/03 08:59:08;;;;;;;7.05;3.65;;;;;;;24.48;59.93;99573.75;8363645;28;20045;-84
2022/08/03 09:03:11;;;;;;;7.85;4.00;;;;;;;24.64;60.05;99574.19;8362214;28;20049;-82
2022/08/03 09:07:12;;;;;;;8.05;3.88;;;;;;;24.81;59.00;99569.88;8363318;28;20425;-84
2022/08/03 09:11:13;;;;;;;4.90;3.72;;;;;;;24.96;58.95;99570.72;8360737;28;20076;-83
2022/08/03 09:15:25;;;;;;;8.38;3.80;;;;;;;25.16;58.78;99574.69;8360823;28;20053;-84
2022/08/03 09:19:26;;;;;;;6.45;3.70;;;;;;;25.32;58.16;99577.06;8363327;28;20422;-84
2022/08/03 09:23:43;;;;;;;6.28;3.78;;;;;;;25.45;56.84;99576.22;8362889;28;20133;-82
2022/08/03 09:27:45;;;;;;;3.60;3.30;;;;;;;25.60;56.55;99577.81;8395073;28;20394;-83
2022/08/03 09:31:46;;;;;;;5.90;3.10;;;;;;;25.73;54.89;99571.88;8343850;28;20059;-82
2022/08/03 09:35:48;;;;;;;9.73;3.58;;;;;;;25.83;55.67;99571.06;8360449;28;20080;-83
2022/08/03 09:39:49;;;;;;;3.30;2.88;;;;;;;25.95;54.57;99576.97;8350579;28;20140;-83
2022/08/03 09:43:55;;;;;;;7.68;3.42;;;;;;;26.05;55.26;99575.34;8341641;28;20165;-83
2022/08/03 09:47:58;;;;;;;3.75;2.97;;;;;;;26.17;54.35;99576.88;8358104;28;20051;-83
2022/08/03 09:52:12;;;;;;;4.55;3.10;;;;;;;26.27;52.63;99565.78;8358432;28;20061;-84
2022/08/03 09:56:17;;;;;;;7.43;3.30;;;;;;;26.39;53.13;99568.06;8325655;28;20135;-83
2022/08/03 10:00:18;;;;;;;5.55;3.13;;;;;;;26.52;51.99;99564.84;8341430;28;20045;-83
2022/08/03 10:04:20;;;;;;;5.63;2.88;;;;;;;26.57;48.65;99567.19;8357640;28;20053;-84
2022/08/03 10:08:21;;;;;;;4.40;3.03;;;;;;;26.63;49.49;99566.38;8358110;28;20092;-85
2022/08/03 10:12:23;;;;;;;3.92;2.55;;;;;;;26.73;49.48;99553.63;8357939;28;20052;-84
2022/08/03 10:16:24;;;;;;;4.25;2.53;;;;;;;26.86;50.28;99558.28;8361902;28;20440;-83
2022/08/03 10:20:25;;;;;;;6.35;2.55;;;;;;;26.98;48.80;99554.28;8360614;28;20138;-84
2022/08/03 10:24:28;;;;;;;3.15;2.42;;;;;;;27.07;48.00;99546.28;8363023;28;20049;-84
2022/08/03 10:28:39;;;;;;;4.00;2.60;;;;;;;27.16;48.44;99546.59;8349522;28;20045;-84
2022/08/03 10:32:50;;;;;;;5.07;2.80;;;;;;;27.28;47.89;99548.09;8315751;28;20535;-83
2022/08/03 10:36:52;;;;;;;5.90;2.90;;;;;;;27.39;47.83;99550.78;8359593;28;20045;-84
2022/08/03 10:40:54;;;;;;;6.57;2.70;;;;;;;27.52;48.41;99549.06;8366707;28;20056;-83
2022/08/03 10:45:06;;;;;;;2.92;2.33;;;;;;;27.63;48.23;99544.19;8360261;28;20068;-84
2022/08/03 10:49:08;;;;;;;5.10;2.40;;;;;;;27.71;46.65;99542.91;8351958;28;20521;-83
2022/08/03 10:53:08;;;;;;;3.60;2.55;;;;;;;27.79;47.07;99541.66;8363764;28;20457;-84
2022/08/03 10:57:42;;;;;;;2.67;2.47;;;;;;;27.86;46.34;99546.34;8363071;28;20135;-84
2022/08/03 11:01:52;;;;;;;7.25;3.10;;;;;;;27.92;45.26;99545.44;8349672;28;20072;-82
2022/08/03 11:06:14;;;;;;;5.10;2.70;;;;;;;27.97;45.05;99542.19;8365237;28;20091;-82
2022/08/03 11:10:30;;;;;;;7.07;2.75;;;;;;;28.05;46.36;99543.72;8362548;28;20051;-84
2022/08/03 11:14:45;;;;;;;5.65;2.58;;;;;;;28.17;45.71;99538.84;8362105;28;20057;-83
2022/08/03 11:18:59;;;;;;;4.20;2.85;;;;;;;28.32;45.00;99529.91;8362330;28;20052;-83
2022/08/03 11:23:01;;;;;;;2.90;2.53;;;;;;;28.45;46.65;99527.31;8346254;28;20132;-84
2022/08/03 11:27:17;;;;;;;3.53;2.35;;;;;;;28.54;45.11;99535.94;8293649;28;20139;-82
2022/08/03 11:31:21;;;;;;;4.43;2.40;;;;;;;28.59;43.35;99527.13;8354258;28;20130;-83
2022/08/03 11:35:30;;;;;;;9.45;2.25;;;;;;;28.67;44.08;99523.03;8365277;28;20121;-83
2022/08/03 11:39:45;;;;;;;5.13;2.38;;;;;;;28.66;43.08;99521.44;8342075;28;20103;-83
2022/08/03 11:43:46;;;;;;;3.10;2.30;;;;;;;28.77;44.48;99524.88;8357997;28;20049;-84
2022/08/03 11:47:48;;;;;;;3.03;2.33;;;;;;;28.87;43.77;99526.69;8365203;28;20049;-83
2022/08/03 11:51:52;;;;;;;4.78;2.30;;;;;;;28.52;42.32;99518.91;8365271;28;20057;-83
2022/08/03 11:55:57;;;;;;;4.63;2.30;;;;;;;28.63;42.79;99516.75;8365002;28;20095;-83
2022/08/03 11:59:59;;;;;;;5.55;2.28;;;;;;;28.78;41.40;99507.00;8362604;28;20037;-83
2022/08/03 12:04:04;;;;;;;3.47;2.35;;;;;;;28.73;40.65;99510.25;8358119;28;20053;-86
2022/08/03 12:08:05;;;;;;;2.75;1.90;;;;;;;28.88;40.51;99511.59;8359448;28;20041;-84
2022/08/03 12:12:06;;;;;;;2.78;2.10;;;;;;;29.02;39.32;99504.25;8363889;28;20102;-85
2022/08/03 12:16:08;;;;;;;3.70;1.80;;;;;;;29.13;37.76;99499.28;8362786;28;20048;-84
2022/08/03 12:20:20;;;;;;;4.80;2.35;;;;;;;29.26;39.57;99500.22;8363270;28;20060;-83
2022/08/03 12:24:21;;;;;;;2.35;1.80;;;;;;;29.28;37.99;99495.03;8366362;28;20044;-83
2022/08/03 12:28:22;;;;;;;2.28;2.00;;;;;;;29.35;37.95;99504.06;8363980;28;20048;-83
2022/08/03 12:32:24;;;;;;;5.10;2.13;;;;;;;29.32;37.26;99495.78;8363370;28;20056;-83
2022/08/03 12:36:26;;;;;;;3.28;1.60;;;;;;;29.51;39.27;99499.78;8363388;28;20060;-83
2022/08/03 12:40:27;;;;;;;3.78;2.05;;;;;;;29.69;39.14;99487.13;8363584;28;20049;-82
2022/08/03 12:44:34;;;;;;;5.90;1.90;;;;;;;29.67;37.95;99483.97;8363188;28;20045;-84
2022/08/03 12:48:35;;;;;;;3.72;1.92;;;;;;;29.70;37.46;99488.69;8361060;28;20096;-83
2022/08/03 12:52:43;;;;;;;3.63;2.05;;;;;;;29.63;36.15;99488.81;8394260;28;20502;-83
2022/08/03 12:57:03;;;;;;;;;;;;;;;29.84;36.98;99492.38;8363703;28;20064;-85
2022/08/03 13:01:07;;;;;;;2.10;1.90;;;;;;;29.82;36.35;99478.13;8361234;28;20335;-82
2022/08/03 13:05:13;;;;;;;3.45;1.92;;;;;;;29.91;37.54;99478.34;8362235;28;20119;-83
2022/08/03 13:09:15;;;;;;;5.15;2.17;;;;;;;30.01;37.86;99475.34;8362729;28;20064;-83
2022/08/03 13:13:16;;;;;;;2.95;2.00;;;;;;;30.11;38.52;99479.09;8390646;28;20194;-83
2022/08/03 13:17:17;;;;;;;5.78;2.00;;;;;;;30.14;37.33;99483.78;8325193;28;20053;-84
2022/08/03 13:21:19;;;;;;;2.45;1.95;;;;;;;30.13;38.29;99482.25;8325406;28;20056;-83
2022/08/03 13:25:20;;;;;;;4.57;2.05;;;;;;;30.04;37.37;99479.25;8325360;28;20050;-82
2022/08/03 13:29:21;;;;;;;3.45;2.28;;;;;;;30.02;38.10;99481.69;8324970;28;20517;-82
2022/08/03 13:33:22;;;;;;;5.68;2.13;;;;;;;30.09;37.56;99467.59;8324790;28;20402;-87
2022/08/03 13:37:23;;;;;;;4.55;2.22;;;;;;;30.90;36.75;99473.28;8325263;28;20049;-84
2022/08/03 13:41:24;;;;;;;2.85;2.00;;;;;;;32.27;33.92;99479.84;8288535;28;20041;-83
2022/08/03 13:45:26;;;;;;;7.72;2.08;;;;;;;33.80;31.70;99469.88;8318339;28;20128;-83
2022/08/03 13:49:28;;;;;;;4.72;1.88;;;;;;;34.87;30.27;99471.28;8309279;28;20053;-83
2022/08/03 13:53:29;;;;;;;2.63;2.15;;;;;;;36.13;29.54;99468.91;8334432;28;20409;-82
2022/08/03 13:57:30;;;;;;;1.95;1.65;;;;;;;37.22;28.61;99474.00;8357619;28;20132;-83
2022/08/03 14:01:31;;;;;;;4.25;1.92;;;;;;;38.00;27.97;99470.66;8354180;28;20045;-84
2022/08/03 14:05:33;;;;;;;2.90;1.95;;;;;;;38.04;25.83;99465.59;8360220;28;20405;-84
2022/08/03 14:09:34;;;;;;;2.92;2.13;;;;;;;38.80;26.49;99469.31;8359408;28;20043;-83
2022/08/03 14:13:35;;;;;;;2.75;1.90;;;;;;;39.97;26.57;99455.78;8359634;28;20057;-83
2022/08/03 14:17:36;;;;;;;1.70;1.60;;;;;;;40.70;24.50;99457.13;8360931;28;20044;-83
2022/08/03 14:21:37;;;;;;;3.28;1.73;;;;;;;41.41;24.13;99455.06;8347271;28;20463;-83
2022/08/03 14:25:40;;;;;;;4.18;1.85;;;;;;;41.83;23.49;99452.06;8371960;28;20073;-84
2022/08/03 14:29:41;;;;;;;1.98;1.77;;;;;;;42.22;23.03;99454.16;8359247;28;20045;-81
2022/08/03 14:33:42;;;;;;;2.72;1.70;;;;;;;42.66;22.05;99448.44;8359905;28;20045;-81
2022/08/03 14:37:43;;;;;;;1.90;1.63;;;;;;;42.88;21.66;99447.63;8359503;28;20049;-81
2022/08/03 14:41:43;;;;;;;3.08;1.60;;;;;;;43.27;20.99;99444.59;8360503;28;20482;-81
2022/08/03 14:45:44;;;;;;;1.90;1.40;;;;;;;43.55;20.94;99453.75;8359487;28;20079;-82
2022/08/03 14:49:45;;;;;;;1.55;1.45;;;;;;;43.84;19.73;99451.50;8350677;28;20486;-82
2022/08/03 14:53:46;;;;;;;4.70;1.75;;;;;;;44.11;19.26;99441.94;8351077;28;20513;-82
2022/08/03 14:57:47;;;;;;;2.20;1.98;;;;;;;44.25;19.11;99440.81;8354820;28;20052;-82
2022/08/03 15:01:48;;;;;;;3.72;1.52;;;;;;;44.60;19.66;99437.84;8359188;28;20486;-82
2022/08/03 15:05:54;;;;;;;6.38;1.88;;;;;;;44.82;19.68;99433.22;8359234;28;20052;-82
2022/08/03 15:09:55;;;;;;;1.60;1.47;;;;;;;45.24;19.14;99426.72;8325769;28;20047;-82
2022/08/03 15:13:56;;;;;;;1.90;1.70;;;;;;;45.28;18.61;99426.41;8364736;28;20048;-82
2022/08/03 15:17:57;;;;;;;5.55;1.77;;;;;;;45.07;18.54;99429.03;8365216;28;20049;-83
2022/08/03 15:21:58;;;;;;;2.95;1.50;;;;;;;45.14;18.03;99422.72;8358054;28;20077;-83
2022/08/03 15:25:59;;;;;;;3.60;1.90;;;;;;;44.28;18.85;99431.22;8362321;28;20099;-83
2022/08/03 15:30:00;;;;;;;2.53;1.70;;;;;;;42.42;20.52;99411.31;8365696;28;20045;-84
2022/08/03 15:34:01;;;;;;;3.80;1.70;;;;;;;39.93;22.55;99415.63;8363699;28;20037;-83
2022/08/03 15:38:02;;;;;;;4.55;1.90;;;;;;;38.39;24.54;99412.00;8364340;28;20048;-83
2022/08/03 15:42:03;;;;;;;1.52;1.42;;;;;;;37.26;25.80;99406.22;8378054;28;20163;-83
2022/08/03 15:46:04;;;;;;;3.60;1.63;;;;;;;36.31;26.73;99404.97;8355040;28;20045;-82
2022/08/03 15:50:06;;;;;;;1.60;1.45;;;;;;;35.44;27.55;99397.41;8363991;28;20049;-82
2022/08/03 15:54:07;;;;;;;4.60;1.60;;;;;;;34.81;28.36;99405.81;8363031;28;20266;-81
2022/08/03 15:58:08;;;;;;;3.15;1.63;;;;;;;34.25;28.83;99404.13;8363951;28;20555;-82
2022/08/03 16:02:10;;;;;;;2.95;1.75;;;;;;;33.63;28.48;99401.25;8364505;28;20076;-82
2022/08/03 16:06:12;;;;;;;3.33;1.98;;;;;;;33.31;29.85;99393.31;8364674;28;20487;-82
2022/08/03 16:10:17;;;;;;;4.20;1.75;;;;;;;32.88;30.03;99392.00;8362813;28;20041;-81
2022/08/03 16:14:18;;;;;;;5.07;2.10;;;;;;;32.58;31.31;99384.22;8364530;28;20057;-81
2022/08/03 16:18:19;;;;;;;10.52;2.15;;;;;;;32.28;32.38;99386.41;8364457;28;20148;-83
2022/08/03 16:22:21;;;;;;;5.10;1.77;;;;;;;32.04;31.96;99376.78;8362089;28;20091;-83
2022/08/03 16:26:22;;;;;;;5.45;1.90;;;;;;;31.80;32.44;99379.09;8362622;28;20052;-83
2022/08/03 16:30:23;;;;;;;6.47;2.10;;;;;;;31.53;32.74;99369.53;8364451;28;20083;-82
2022/08/03 16:34:24;;;;;;;5.28;1.90;;;;;;;31.23;34.28;99374.38;8364404;28;20053;-81
2022/08/03 16:38:26;;;;;;;11.00;2.42;;;;;;;30.92;34.90;99370.44;8355551;28;20135;-83
2022/08/03 16:42:26;;;;;;;3.90;2.28;;;;;;;30.70;35.44;99370.22;8361866;28;20049;-83
2022/08/03 16:46:28;;;;;;;12.02;2.53;;;;;;;30.46;36.52;99372.38;8364220;28;20379;-82
2022/08/03 16:50:28;;;;;;;6.45;2.17;;;;;;;30.21;37.02;99373.00;8365247;28;20057;-82
2022/08/03 16:54:29;;;;;;;5.63;2.30;;;;;;;29.95;37.79;99376.81;8361815;28;20095;-83
2022/08/03 16:58:31;;;;;;;3.95;2.20;;;;;;;29.71;38.54;99378.94;8362811;28;20080;-82
2022/08/03 17:02:32;;;;;;;3.28;2.28;;;;;;;29.49;38.68;99377.81;8361951;28;20048;-83
2022/08/03 17:06:36;;;;;;;3.03;2.10;;;;;;;29.25;39.74;99379.84;8337459;28;20532;-83
2022/08/03 17:10:38;;;;;;;2.67;2.10;;;;;;;28.94;40.70;99376.47;8395184;28;20045;-83
2022/08/03 17:14:39;;;;;;;2.45;2.05;;;;;;;28.73;41.99;99376.06;8358267;28;20080;-85
2022/08/03 17:18:51;;;;;;;4.38;2.20;;;;;;;28.49;43.34;99378.06;8361914;28;20378;-85
2022/08/03 17:22:55;;;;;;;5.07;1.95;;;;;;;28.32;44.02;99379.13;8354674;28;20057;-85
2022/08/03 17:27:01;;;;;;;3.55;2.22;;;;;;;28.16;44.44;99381.75;8354751;28;20398;-85
2022/08/03 17:31:14;;;;;;;2.55;2.28;;;;;;;27.99;45.28;99378.81;8359908;28;20052;-85
2022/08/03 17:35:15;;;;;;;2.55;2.33;;;;;;;27.83;46.35;99381.41;8358676;28;20099;-85
2022/08/03 17:39:17;;;;;;;6.32;2.40;;;;;;;27.62;47.38;99387.25;8347605;28;20084;-85
2022/08/03 17:43:18;;;;;;;2.72;2.25;;;;;;;27.48;48.19;99387.41;8358123;28;20500;-84
2022/08/03 17:47:19;;;;;;;3.85;2.30;;;;;;;27.28;49.03;99384.50;8358467;28;20064;-84
2022/08/03 17:51:34;;;;;;;4.95;2.40;;;;;;;27.08;49.64;99398.16;8359579;28;20140;-84
2022/08/03 17:55:40;;;;;;;4.85;2.33;;;;;;;26.85;50.55;99395.22;8359580;28;20055;-84
2022/08/03 17:59:45;;;;;;;3.00;2.33;;;;;;;26.64;51.35;99400.97;8345970;28;20044;-84
2022/08/03 18:03:49;;;;;;;7.57;2.78;;;;;;;26.50;52.03;99393.53;8358758;28;20045;-84
2022/08/03 18:07:54;;;;;;;6.75;2.85;;;;;;;26.28;52.65;99394.94;8362516;28;20052;-85
2022/08/03 18:11:57;;;;;;;5.85;2.92;;;;;;;26.11;53.59;99395.81;8358581;28;20045;-85
2022/08/03 18:16:03;;;;;;;5.68;2.60;;;;;;;25.91;54.49;99387.25;8360376;28;20048;-85
2022/08/03 18:20:05;;;;;;;5.85;3.10;;;;;;;25.74;54.29;99393.66;8351950;28;20049;-85
2022/08/03 18:24:06;;;;;;;7.25;3.22;;;;;;;25.61;54.07;99402.41;8352933;28;20401;-85
2022/08/03 18:28:09;;;;;;;7.18;2.70;;;;;;;25.45;54.45;99409.53;8359578;28;20053;-85
2022/08/03 18:32:11;;;;;;;6.35;3.10;;;;;;;25.29;54.46;99401.69;8339813;28;20105;-86
2022/08/03 18:36:16;;;;;;;6.25;2.90;;;;;;;25.16;54.28;99404.13;8359798;28;20053;-86
2022/08/03 18:40:18;;;;;;;14.40;3.42;;;;;;;25.02;54.13;99415.19;8356406;28;20049;-85
2022/08/03 18:44:19;;;;;;;9.10;2.92;;;;;;;24.95;54.10;99414.44;8372087;28;20056;-86
2022/08/03 18:48:48;;;;;;;11.60;3.65;;;;;;;24.86;53.32;99411.25;8363315;28;20485;-86
2022/08/03 18:52:56;;;;;;;5.10;3.40;;;;;;;24.81;53.38;99416.00;8363835;28;20077;-86
2022/08/03 18:57:00;;;;;;;6.55;3.85;;;;;;;24.75;53.49;99412.03;8362397;28;20060;-86
2022/08/03 19:01:25;;;;;;;7.47;3.42;;;;;;;24.68;53.84;99422.31;8360698;28;20044;-85
2022/08/03 19:05:27;;;;;;;6.53;3.45;;;;;;;24.59;54.04;99425.47;8361695;28;20140;-84
2022/08/03 19:09:51;;;;;;;4.88;3.03;;;;;;;24.51;54.08;99423.91;8363307;28;20135;-85
2022/08/03 19:13:55;;;;;;;7.35;3.58;;;;;;;24.41;54.20;99427.44;8359049;28;20214;-84
2022/08/03 19:17:59;;;;;;;8.90;3.20;;;;;;;24.32;54.13;99416.00;8359845;28;20033;-84
2022/08/03 19:22:03;;;;;;;8.40;3.85;;;;;;;24.28;53.76;99426.22;8364027;28;20044;-84